Altha, Florida
Current Conditions -  °F | °C
As of 12:53 PM on Sunday 21 Dec 2014 (Local Time) from KMAI Reporting Station
Haze Haze  
Wind Chill: 13°   Ceiling: 500
Heat Index: 13°   Visibility: 3mi
Dew Point: 13°   Wind: 8mph
Humidity: 100%   Direction: 50°NE
Pressure: 30.05"   Gusts: NA
Location:  30.57°N, 85.13°W
Report Text: KMAI 211853Z AUTO 05007KT 3SM BR OVC005 13/13 A3005 RMK AO2 RAE32 CIG 003V009 SLP175 P0000 T01280128 $
Loading
Personal Weather Stations






























Interactive Weather Map New forecast layout! Learn more

10-Day Weather Forecast

Advertisements
Track Severe Weather on mobile